Авиационная погода в Вадсё

Регион: 
Погода METAR: 
ENVD 282220Z 00000KT CAVOK 19/13 Q1021
Время наблюдения
2022-06-28T22:20:00Z
Температура C
19.0
Точка росы
13.0
Направление ветра
0
Скорость ветра (узлы)
0
Метео видимость
6.21
Облачность
CAVOK
Нижняя граница облачности (футы)
Явления погоды
Условия полета
VFR